Live aus Altenrhein
LIVE
LSZR 261350Z 26007KT 210V290 9999 -RA FEW030 BKN038 16/12 Q1013 NOSIG RMK K

People´s Info Center:

Öffnungszeiten Mo-Fr, 8-18 Uhr

 

info@peoples.ch

 
Aus Österreich:

T: +43 (0)5572 203 610

 

Aus CH / LI / DE:

T: +41 (0)71 858 51 60

 

Webcam Flughafen St.Gallen-Altenrhein

Live-Bilder und Zeitraffer LSZR / ACH.

 

Live aus Altenrhein
LIVE
LSZR 261350Z 26007KT 210V290 9999 -RA FEW030 BKN038 16/12 Q1013 NOSIG RMK K
Zeitraffer heute
2017-07-26 00:00:01
LSZR 252150Z AUTO 23006KT 160V290 9999 -RA OVC060 15/10 Q1011
Zeitraffer gestern
2017-07-25 00:14:57
LSZR 242150Z AUTO VRB02KT 9999 FEW040 OVC045 BKN070 15/12 Q1013
Zeitraffer vor 3 Tagen
2017-07-23 00:14:55
LSZR 222150Z AUTO 25027KT 210V290 1200 R10/0650D TSRA BKN036CB 18/15 Q1017